sensor_id;sensor_type;location;lat;lon;timestamp;temperature;humidity
49236;DHT22;35067;48.134;8.378;2023-12-07T00:00:42;0.60;99.90
49236;DHT22;35067;48.134;8.378;2023-12-07T00:01:43;0.60;99.90
49236;DHT22;35067;48.134;8.378;2023-12-07T00:02:45;0.60;99.90
49236;DHT22;35067;48.134;8.378;2023-12-07T00:03:46;0.70;99.90
49236;DHT22;35067;48.134;8.378;2023-12-07T00:04:47;0.70;99.90
49236;DHT22;35067;48.134;8.378;2023-12-07T00:05:47;0.60;99.90
49236;DHT22;35067;48.134;8.378;2023-12-07T00:06:48;0.60;99.90
49236;DHT22;35067;48.134;8.378;2023-12-07T00:07:49;0.60;99.90
49236;DHT22;35067;48.134;8.378;2023-12-07T00:08:49;0.60;99.90
49236;DHT22;35067;48.134;8.378;2023-12-07T00:09:50;0.70;99.90
49236;DHT22;35067;48.134;8.378;2023-12-07T00:10:52;0.60;99.90
49236;DHT22;35067;48.134;8.378;2023-12-07T00:11:52;0.50;99.90
49236;DHT22;35067;48.134;8.378;2023-12-07T00:12:53;0.50;99.90
49236;DHT22;35067;48.134;8.378;2023-12-07T00:13:54;0.40;99.90
49236;DHT22;35067;48.134;8.378;2023-12-07T00:14:54;0.40;99.90
49236;DHT22;35067;48.134;8.378;2023-12-07T00:15:55;0.50;99.90
49236;DHT22;35067;48.134;8.378;2023-12-07T00:16:56;0.50;99.90
49236;DHT22;35067;48.134;8.378;2023-12-07T00:17:57;0.60;99.90
49236;DHT22;35067;48.134;8.378;2023-12-07T00:18:58;0.60;99.90
49236;DHT22;35067;48.134;8.378;2023-12-07T00:19:58;0.60;99.90
49236;DHT22;35067;48.134;8.378;2023-12-07T00:21:00;0.70;99.90
49236;DHT22;35067;48.134;8.378;2023-12-07T00:22:01;0.80;99.90
49236;DHT22;35067;48.134;8.378;2023-12-07T00:23:02;0.90;99.90
49236;DHT22;35067;48.134;8.378;2023-12-07T00:24:03;0.90;99.90
49236;DHT22;35067;48.134;8.378;2023-12-07T00:25:05;0.90;99.90
49236;DHT22;35067;48.134;8.378;2023-12-07T00:26:06;0.80;99.90
49236;DHT22;35067;48.134;8.378;2023-12-07T00:27:07;0.70;99.90
49236;DHT22;35067;48.134;8.378;2023-12-07T00:28:07;0.70;99.90
49236;DHT22;35067;48.134;8.378;2023-12-07T00:29:08;0.70;99.90
49236;DHT22;35067;48.134;8.378;2023-12-07T00:30:09;0.70;99.90
49236;DHT22;35067;48.134;8.378;2023-12-07T00:31:10;0.80;99.90
49236;DHT22;35067;48.134;8.378;2023-12-07T00:32:11;0.80;99.90
49236;DHT22;35067;48.134;8.378;2023-12-07T00:33:12;0.90;99.90
49236;DHT22;35067;48.134;8.378;2023-12-07T00:34:12;0.80;99.90
49236;DHT22;35067;48.134;8.378;2023-12-07T00:35:13;0.80;99.90
49236;DHT22;35067;48.134;8.378;2023-12-07T00:36:15;0.80;99.90
49236;DHT22;35067;48.134;8.378;2023-12-07T00:37:16;0.80;99.90
49236;DHT22;35067;48.134;8.378;2023-12-07T00:38:17;0.80;99.90
49236;DHT22;35067;48.134;8.378;2023-12-07T00:39:18;0.90;99.90
49236;DHT22;35067;48.134;8.378;2023-12-07T00:40:18;0.90;99.90
49236;DHT22;35067;48.134;8.378;2023-12-07T00:41:19;1.00;99.90
49236;DHT22;35067;48.134;8.378;2023-12-07T00:42:20;1.00;99.90
49236;DHT22;35067;48.134;8.378;2023-12-07T00:43:22;1.00;99.90
49236;DHT22;35067;48.134;8.378;2023-12-07T00:44:22;1.10;99.90
49236;DHT22;35067;48.134;8.378;2023-12-07T00:45:23;1.00;99.90
49236;DHT22;35067;48.134;8.378;2023-12-07T00:46:24;1.00;99.90
49236;DHT22;35067;48.134;8.378;2023-12-07T00:47:24;1.00;99.90
49236;DHT22;35067;48.134;8.378;2023-12-07T00:48:25;0.90;99.90
49236;DHT22;35067;48.134;8.378;2023-12-07T00:49:26;0.90;99.90
49236;DHT22;35067;48.134;8.378;2023-12-07T00:50:26;0.90;99.90
49236;DHT22;35067;48.134;8.378;2023-12-07T00:51:27;0.90;99.90
49236;DHT22;35067;48.134;8.378;2023-12-07T00:52:28;0.90;99.90
49236;DHT22;35067;48.134;8.378;2023-12-07T00:53:28;0.90;99.90
49236;DHT22;35067;48.134;8.378;2023-12-07T00:54:29;0.90;99.90
49236;DHT22;35067;48.134;8.378;2023-12-07T00:55:30;1.00;99.90
49236;DHT22;35067;48.134;8.378;2023-12-07T00:56:30;1.00;99.90
49236;DHT22;35067;48.134;8.378;2023-12-07T00:57:31;0.90;99.90
49236;DHT22;35067;48.134;8.378;2023-12-07T00:58:32;0.90;99.90
49236;DHT22;35067;48.134;8.378;2023-12-07T00:59:33;0.80;99.90
49236;DHT22;35067;48.134;8.378;2023-12-07T01:00:37;0.70;99.90
49236;DHT22;35067;48.134;8.378;2023-12-07T01:01:37;0.70;99.90
49236;DHT22;35067;48.134;8.378;2023-12-07T01:02:39;0.70;99.90
49236;DHT22;35067;48.134;8.378;2023-12-07T01:03:40;0.70;99.90
49236;DHT22;35067;48.134;8.378;2023-12-07T01:04:41;0.80;99.90
49236;DHT22;35067;48.134;8.378;2023-12-07T01:05:41;0.80;99.90
49236;DHT22;35067;48.134;8.378;2023-12-07T01:06:42;0.80;99.90
49236;DHT22;35067;48.134;8.378;2023-12-07T01:07:43;0.80;99.90
49236;DHT22;35067;48.134;8.378;2023-12-07T01:08:43;0.80;99.90
49236;DHT22;35067;48.134;8.378;2023-12-07T01:09:44;0.80;99.90
49236;DHT22;35067;48.134;8.378;2023-12-07T01:10:45;0.90;99.90
49236;DHT22;35067;48.134;8.378;2023-12-07T01:11:46;0.90;99.90
49236;DHT22;35067;48.134;8.378;2023-12-07T01:12:46;0.90;99.90
49236;DHT22;35067;48.134;8.378;2023-12-07T01:13:47;0.80;99.90
49236;DHT22;35067;48.134;8.378;2023-12-07T01:14:48;0.90;99.90
49236;DHT22;35067;48.134;8.378;2023-12-07T01:15:48;0.90;99.90
49236;DHT22;35067;48.134;8.378;2023-12-07T01:16:49;0.90;99.90
49236;DHT22;35067;48.134;8.378;2023-12-07T01:17:50;1.00;99.90
49236;DHT22;35067;48.134;8.378;2023-12-07T01:18:50;1.00;99.90
49236;DHT22;35067;48.134;8.378;2023-12-07T01:19:51;1.00;99.90
49236;DHT22;35067;48.134;8.378;2023-12-07T01:20:52;1.00;99.90
49236;DHT22;35067;48.134;8.378;2023-12-07T01:21:52;1.00;99.90
49236;DHT22;35067;48.134;8.378;2023-12-07T01:22:53;1.00;99.90
49236;DHT22;35067;48.134;8.378;2023-12-07T01:23:54;0.90;99.90
49236;DHT22;35067;48.134;8.378;2023-12-07T01:24:55;0.90;99.90
49236;DHT22;35067;48.134;8.378;2023-12-07T01:25:55;0.90;99.90
49236;DHT22;35067;48.134;8.378;2023-12-07T01:26:56;0.90;99.90
49236;DHT22;35067;48.134;8.378;2023-12-07T01:27:57;0.90;99.90
49236;DHT22;35067;48.134;8.378;2023-12-07T01:28:59;1.00;99.90
49236;DHT22;35067;48.134;8.378;2023-12-07T01:30:00;1.00;99.90
49236;DHT22;35067;48.134;8.378;2023-12-07T01:31:00;1.00;99.90
49236;DHT22;35067;48.134;8.378;2023-12-07T01:32:01;0.90;99.90
49236;DHT22;35067;48.134;8.378;2023-12-07T01:33:02;0.90;99.90
49236;DHT22;35067;48.134;8.378;2023-12-07T01:34:02;0.90;99.90
49236;DHT22;35067;48.134;8.378;2023-12-07T01:35:03;0.90;99.90
49236;DHT22;35067;48.134;8.378;2023-12-07T01:36:04;0.90;99.90
49236;DHT22;35067;48.134;8.378;2023-12-07T01:37:05;0.80;99.90
49236;DHT22;35067;48.134;8.378;2023-12-07T01:38:06;0.80;99.90
49236;DHT22;35067;48.134;8.378;2023-12-07T01:39:07;0.70;99.90
49236;DHT22;35067;48.134;8.378;2023-12-07T01:40:08;0.60;99.90
49236;DHT22;35067;48.134;8.378;2023-12-07T01:41:10;0.70;99.90
49236;DHT22;35067;48.134;8.378;2023-12-07T01:42:11;0.70;99.90
49236;DHT22;35067;48.134;8.378;2023-12-07T01:43:14;0.70;99.90
49236;DHT22;35067;48.134;8.378;2023-12-07T01:44:15;0.50;99.90
49236;DHT22;35067;48.134;8.378;2023-12-07T01:45:16;0.40;99.90
49236;DHT22;35067;48.134;8.378;2023-12-07T01:46:17;0.30;99.90
49236;DHT22;35067;48.134;8.378;2023-12-07T01:47:18;0.40;99.90
49236;DHT22;35067;48.134;8.378;2023-12-07T01:48:20;0.30;99.90
49236;DHT22;35067;48.134;8.378;2023-12-07T01:49:21;0.20;99.90
49236;DHT22;35067;48.134;8.378;2023-12-07T01:50:22;0.20;99.90
49236;DHT22;35067;48.134;8.378;2023-12-07T01:51:24;0.20;99.90
49236;DHT22;35067;48.134;8.378;2023-12-07T01:52:26;0.10;99.90
49236;DHT22;35067;48.134;8.378;2023-12-07T01:53:28;0.00;99.90
49236;DHT22;35067;48.134;8.378;2023-12-07T01:54:29;0.00;99.90
49236;DHT22;35067;48.134;8.378;2023-12-07T01:55:32;-0.10;99.90
49236;DHT22;35067;48.134;8.378;2023-12-07T01:56:33;-0.10;99.90
49236;DHT22;35067;48.134;8.378;2023-12-07T01:57:34;-0.20;99.90
49236;DHT22;35067;48.134;8.378;2023-12-07T01:58:35;-0.20;99.90
49236;DHT22;35067;48.134;8.378;2023-12-07T01:59:36;-0.20;99.90
49236;DHT22;35067;48.134;8.378;2023-12-07T02:00:37;-0.20;99.90
49236;DHT22;35067;48.134;8.378;2023-12-07T02:01:38;-0.20;99.90
49236;DHT22;35067;48.134;8.378;2023-12-07T02:02:39;-0.30;99.90
49236;DHT22;35067;48.134;8.378;2023-12-07T02:03:40;-0.30;99.90
49236;DHT22;35067;48.134;8.378;2023-12-07T02:04:41;-0.40;99.90
49236;DHT22;35067;48.134;8.378;2023-12-07T02:05:43;-0.50;99.90
49236;DHT22;35067;48.134;8.378;2023-12-07T02:06:46;-0.60;99.90
49236;DHT22;35067;48.134;8.378;2023-12-07T02:07:47;-0.60;99.90
49236;DHT22;35067;48.134;8.378;2023-12-07T02:08:48;-0.60;99.90
49236;DHT22;35067;48.134;8.378;2023-12-07T02:09:49;-0.60;99.90
49236;DHT22;35067;48.134;8.378;2023-12-07T02:10:51;-0.60;99.90
49236;DHT22;35067;48.134;8.378;2023-12-07T02:11:53;-0.70;99.90
49236;DHT22;35067;48.134;8.378;2023-12-07T02:12:54;-0.70;99.90
49236;DHT22;35067;48.134;8.378;2023-12-07T02:13:55;-0.70;99.90
49236;DHT22;35067;48.134;8.378;2023-12-07T02:14:58;-0.70;99.90
49236;DHT22;35067;48.134;8.378;2023-12-07T02:16:01;-0.70;99.90
49236;DHT22;35067;48.134;8.378;2023-12-07T02:17:34;-0.70;99.90
49236;DHT22;35067;48.134;8.378;2023-12-07T02:18:51;-0.70;99.90
49236;DHT22;35067;48.134;8.378;2023-12-07T02:20:05;-0.70;99.90
49236;DHT22;35067;48.134;8.378;2023-12-07T02:21:18;-0.70;99.90
49236;DHT22;35067;48.134;8.378;2023-12-07T02:22:32;-0.80;99.90
49236;DHT22;35067;48.134;8.378;2023-12-07T02:23:39;-0.90;99.90
49236;DHT22;35067;48.134;8.378;2023-12-07T02:24:47;-0.80;99.90
49236;DHT22;35067;48.134;8.378;2023-12-07T02:27:49;-0.90;99.90
49236;DHT22;35067;48.134;8.378;2023-12-07T02:28:50;-1.00;99.90
49236;DHT22;35067;48.134;8.378;2023-12-07T02:29:52;-1.00;99.90
49236;DHT22;35067;48.134;8.378;2023-12-07T02:30:53;-1.00;99.90
49236;DHT22;35067;48.134;8.378;2023-12-07T02:31:53;-1.10;99.90
49236;DHT22;35067;48.134;8.378;2023-12-07T02:32:54;-1.00;99.90
49236;DHT22;35067;48.134;8.378;2023-12-07T02:33:55;-1.00;99.90
49236;DHT22;35067;48.134;8.378;2023-12-07T02:34:56;-1.00;99.90
49236;DHT22;35067;48.134;8.378;2023-12-07T02:35:57;-1.00;99.90
49236;DHT22;35067;48.134;8.378;2023-12-07T02:36:58;-1.00;99.90
49236;DHT22;35067;48.134;8.378;2023-12-07T02:38:01;-0.90;99.90
49236;DHT22;35067;48.134;8.378;2023-12-07T02:39:03;-1.00;99.90
49236;DHT22;35067;48.134;8.378;2023-12-07T02:40:06;-1.00;99.90
49236;DHT22;35067;48.134;8.378;2023-12-07T02:41:11;-1.00;99.90
49236;DHT22;35067;48.134;8.378;2023-12-07T02:42:13;-1.00;99.90
49236;DHT22;35067;48.134;8.378;2023-12-07T02:43:15;-1.00;99.90
49236;DHT22;35067;48.134;8.378;2023-12-07T02:44:16;-1.10;99.90
49236;DHT22;35067;48.134;8.378;2023-12-07T02:45:17;-1.10;99.90
49236;DHT22;35067;48.134;8.378;2023-12-07T02:46:18;-1.10;99.90
49236;DHT22;35067;48.134;8.378;2023-12-07T02:47:19;-1.10;99.90
49236;DHT22;35067;48.134;8.378;2023-12-07T02:48:20;-1.20;99.90
49236;DHT22;35067;48.134;8.378;2023-12-07T02:49:21;-1.10;99.90
49236;DHT22;35067;48.134;8.378;2023-12-07T02:50:22;-1.20;99.90
49236;DHT22;35067;48.134;8.378;2023-12-07T02:51:22;-1.20;99.90
49236;DHT22;35067;48.134;8.378;2023-12-07T02:52:23;-1.20;99.90
49236;DHT22;35067;48.134;8.378;2023-12-07T02:53:24;-1.20;99.90
49236;DHT22;35067;48.134;8.378;2023-12-07T02:54:25;-1.20;99.90
49236;DHT22;35067;48.134;8.378;2023-12-07T02:55:25;-1.20;99.90
49236;DHT22;35067;48.134;8.378;2023-12-07T02:56:26;-1.20;99.90
49236;DHT22;35067;48.134;8.378;2023-12-07T02:57:27;-1.30;99.90
49236;DHT22;35067;48.134;8.378;2023-12-07T02:58:27;-1.30;99.90
49236;DHT22;35067;48.134;8.378;2023-12-07T02:59:28;-1.30;99.90
49236;DHT22;35067;48.134;8.378;2023-12-07T03:00:29;-1.20;99.90
49236;DHT22;35067;48.134;8.378;2023-12-07T03:01:29;-1.20;99.90
49236;DHT22;35067;48.134;8.378;2023-12-07T03:02:30;-1.20;99.90
49236;DHT22;35067;48.134;8.378;2023-12-07T03:03:31;-1.30;99.90
49236;DHT22;35067;48.134;8.378;2023-12-07T03:04:32;-1.40;99.90
49236;DHT22;35067;48.134;8.378;2023-12-07T03:05:32;-1.40;99.90
49236;DHT22;35067;48.134;8.378;2023-12-07T03:06:33;-1.40;99.90
49236;DHT22;35067;48.134;8.378;2023-12-07T03:07:34;-1.40;99.90
49236;DHT22;35067;48.134;8.378;2023-12-07T03:08:35;-1.50;99.90
49236;DHT22;35067;48.134;8.378;2023-12-07T03:09:36;-1.40;99.90
49236;DHT22;35067;48.134;8.378;2023-12-07T03:10:36;-1.50;99.90
49236;DHT22;35067;48.134;8.378;2023-12-07T03:11:37;-1.50;99.90
49236;DHT22;35067;48.134;8.378;2023-12-07T03:12:37;-1.60;99.90
49236;DHT22;35067;48.134;8.378;2023-12-07T03:13:38;-1.60;99.90
49236;DHT22;35067;48.134;8.378;2023-12-07T03:14:39;-1.60;99.90
49236;DHT22;35067;48.134;8.378;2023-12-07T03:15:40;-1.60;99.90
49236;DHT22;35067;48.134;8.378;2023-12-07T03:16:40;-1.60;99.90
49236;DHT22;35067;48.134;8.378;2023-12-07T03:17:41;-1.60;99.90
49236;DHT22;35067;48.134;8.378;2023-12-07T03:18:42;-1.70;99.90
49236;DHT22;35067;48.134;8.378;2023-12-07T03:19:42;-1.70;99.90
49236;DHT22;35067;48.134;8.378;2023-12-07T03:20:43;-1.70;99.90
49236;DHT22;35067;48.134;8.378;2023-12-07T03:21:44;-1.70;99.90
49236;DHT22;35067;48.134;8.378;2023-12-07T03:22:45;-1.60;99.90
49236;DHT22;35067;48.134;8.378;2023-12-07T03:23:45;-1.60;99.90
49236;DHT22;35067;48.134;8.378;2023-12-07T03:24:49;-1.70;99.90
49236;DHT22;35067;48.134;8.378;2023-12-07T03:25:51;-1.60;99.90
49236;DHT22;35067;48.134;8.378;2023-12-07T03:26:53;-1.70;99.90
49236;DHT22;35067;48.134;8.378;2023-12-07T03:27:53;-1.80;99.90
49236;DHT22;35067;48.134;8.378;2023-12-07T03:28:54;-1.80;99.90
49236;DHT22;35067;48.134;8.378;2023-12-07T03:29:55;-1.80;99.90
49236;DHT22;35067;48.134;8.378;2023-12-07T03:30:55;-1.70;99.90
49236;DHT22;35067;48.134;8.378;2023-12-07T03:31:56;-1.80;99.90
49236;DHT22;35067;48.134;8.378;2023-12-07T03:32:57;-1.80;99.90
49236;DHT22;35067;48.134;8.378;2023-12-07T03:33:57;-1.80;99.90
49236;DHT22;35067;48.134;8.378;2023-12-07T03:34:59;-1.80;99.90
49236;DHT22;35067;48.134;8.378;2023-12-07T03:36:00;-1.90;99.90
49236;DHT22;35067;48.134;8.378;2023-12-07T03:37:00;-1.90;99.90
49236;DHT22;35067;48.134;8.378;2023-12-07T03:38:02;-1.90;99.90
49236;DHT22;35067;48.134;8.378;2023-12-07T03:39:02;-1.90;99.90
49236;DHT22;35067;48.134;8.378;2023-12-07T03:40:05;-1.90;99.90
49236;DHT22;35067;48.134;8.378;2023-12-07T03:41:06;-2.00;99.90
49236;DHT22;35067;48.134;8.378;2023-12-07T03:42:07;-1.90;99.90
49236;DHT22;35067;48.134;8.378;2023-12-07T03:43:08;-1.90;99.90
49236;DHT22;35067;48.134;8.378;2023-12-07T03:44:09;-1.90;99.90
49236;DHT22;35067;48.134;8.378;2023-12-07T03:45:09;-2.00;99.90
49236;DHT22;35067;48.134;8.378;2023-12-07T03:46:10;-1.90;99.90
49236;DHT22;35067;48.134;8.378;2023-12-07T03:47:11;-2.00;99.90
49236;DHT22;35067;48.134;8.378;2023-12-07T03:48:12;-2.10;99.90
49236;DHT22;35067;48.134;8.378;2023-12-07T03:49:13;-2.10;99.90
49236;DHT22;35067;48.134;8.378;2023-12-07T03:50:14;-2.20;99.90
49236;DHT22;35067;48.134;8.378;2023-12-07T03:51:15;-2.30;99.90
49236;DHT22;35067;48.134;8.378;2023-12-07T03:52:16;-2.30;99.90
49236;DHT22;35067;48.134;8.378;2023-12-07T03:53:17;-2.40;99.90
49236;DHT22;35067;48.134;8.378;2023-12-07T03:54:18;-2.40;99.90
49236;DHT22;35067;48.134;8.378;2023-12-07T03:55:19;-2.40;99.90
49236;DHT22;35067;48.134;8.378;2023-12-07T03:56:26;-2.40;99.90
49236;DHT22;35067;48.134;8.378;2023-12-07T03:57:27;-2.40;99.90
49236;DHT22;35067;48.134;8.378;2023-12-07T03:58:28;-2.40;99.90
49236;DHT22;35067;48.134;8.378;2023-12-07T03:59:29;-2.40;99.90
49236;DHT22;35067;48.134;8.378;2023-12-07T04:00:31;-2.40;99.90
49236;DHT22;35067;48.134;8.378;2023-12-07T04:01:32;-2.30;99.90
49236;DHT22;35067;48.134;8.378;2023-12-07T04:02:33;-2.40;99.90
49236;DHT22;35067;48.134;8.378;2023-12-07T04:03:34;-2.40;99.90
49236;DHT22;35067;48.134;8.378;2023-12-07T04:04:36;-2.50;99.90
49236;DHT22;35067;48.134;8.378;2023-12-07T04:05:38;-2.60;99.90
49236;DHT22;35067;48.134;8.378;2023-12-07T04:06:39;-2.60;99.90
49236;DHT22;35067;48.134;8.378;2023-12-07T04:07:40;-2.60;99.90
49236;DHT22;35067;48.134;8.378;2023-12-07T04:08:41;-2.70;99.90
49236;DHT22;35067;48.134;8.378;2023-12-07T04:09:42;-2.60;99.90
49236;DHT22;35067;48.134;8.378;2023-12-07T04:10:43;-2.60;99.90
49236;DHT22;35067;48.134;8.378;2023-12-07T04:11:44;-2.70;99.90
49236;DHT22;35067;48.134;8.378;2023-12-07T04:12:46;-2.60;99.90
49236;DHT22;35067;48.134;8.378;2023-12-07T04:13:47;-2.60;99.90
49236;DHT22;35067;48.134;8.378;2023-12-07T04:14:47;-2.70;99.90
49236;DHT22;35067;48.134;8.378;2023-12-07T04:15:48;-2.70;99.90
49236;DHT22;35067;48.134;8.378;2023-12-07T04:16:49;-2.60;99.90
49236;DHT22;35067;48.134;8.378;2023-12-07T04:17:50;-2.60;99.90
49236;DHT22;35067;48.134;8.378;2023-12-07T04:18:50;-2.60;99.90
49236;DHT22;35067;48.134;8.378;2023-12-07T04:19:51;-2.60;99.90
49236;DHT22;35067;48.134;8.378;2023-12-07T04:20:52;-2.70;99.90
49236;DHT22;35067;48.134;8.378;2023-12-07T04:21:52;-2.70;99.90
49236;DHT22;35067;48.134;8.378;2023-12-07T04:22:53;-2.70;99.90
49236;DHT22;35067;48.134;8.378;2023-12-07T04:23:54;-2.70;99.90
49236;DHT22;35067;48.134;8.378;2023-12-07T04:24:55;-2.70;99.90
49236;DHT22;35067;48.134;8.378;2023-12-07T04:25:56;-2.70;99.90
49236;DHT22;35067;48.134;8.378;2023-12-07T04:26:56;-2.80;99.90
49236;DHT22;35067;48.134;8.378;2023-12-07T04:27:59;-2.80;99.90
49236;DHT22;35067;48.134;8.378;2023-12-07T04:29:00;-2.80;99.90
49236;DHT22;35067;48.134;8.378;2023-12-07T04:30:00;-2.80;99.90
49236;DHT22;35067;48.134;8.378;2023-12-07T04:31:02;-2.90;99.90
49236;DHT22;35067;48.134;8.378;2023-12-07T04:32:03;-3.00;99.90
49236;DHT22;35067;48.134;8.378;2023-12-07T04:33:04;-2.90;99.90
49236;DHT22;35067;48.134;8.378;2023-12-07T04:34:05;-3.00;99.90
49236;DHT22;35067;48.134;8.378;2023-12-07T04:35:05;-3.00;99.90
49236;DHT22;35067;48.134;8.378;2023-12-07T04:36:07;-3.10;99.90
49236;DHT22;35067;48.134;8.378;2023-12-07T04:37:08;-3.10;99.90
49236;DHT22;35067;48.134;8.378;2023-12-07T04:38:08;-3.10;99.90
49236;DHT22;35067;48.134;8.378;2023-12-07T04:39:09;-3.20;99.90
49236;DHT22;35067;48.134;8.378;2023-12-07T04:40:10;-3.20;99.90
49236;DHT22;35067;48.134;8.378;2023-12-07T04:41:11;-3.30;99.90
49236;DHT22;35067;48.134;8.378;2023-12-07T04:42:12;-3.40;99.90
49236;DHT22;35067;48.134;8.378;2023-12-07T04:43:13;-3.30;99.90
49236;DHT22;35067;48.134;8.378;2023-12-07T04:44:13;-3.30;99.90
49236;DHT22;35067;48.134;8.378;2023-12-07T04:45:14;-3.30;99.90
49236;DHT22;35067;48.134;8.378;2023-12-07T04:46:15;-3.30;99.90
49236;DHT22;35067;48.134;8.378;2023-12-07T04:47:16;-3.30;99.90
49236;DHT22;35067;48.134;8.378;2023-12-07T04:48:16;-3.40;99.90
49236;DHT22;35067;48.134;8.378;2023-12-07T04:49:17;-3.30;99.90
49236;DHT22;35067;48.134;8.378;2023-12-07T04:50:18;-3.40;99.90
49236;DHT22;35067;48.134;8.378;2023-12-07T04:51:18;-3.40;99.90
49236;DHT22;35067;48.134;8.378;2023-12-07T04:52:19;-3.30;99.90
49236;DHT22;35067;48.134;8.378;2023-12-07T04:53:20;-3.30;99.90
49236;DHT22;35067;48.134;8.378;2023-12-07T04:54:20;-3.40;99.90
49236;DHT22;35067;48.134;8.378;2023-12-07T04:55:21;-3.40;99.90
49236;DHT22;35067;48.134;8.378;2023-12-07T04:56:22;-3.30;99.90
49236;DHT22;35067;48.134;8.378;2023-12-07T04:57:22;-3.30;99.90
49236;DHT22;35067;48.134;8.378;2023-12-07T04:58:23;-3.30;99.90
49236;DHT22;35067;48.134;8.378;2023-12-07T04:59:24;-3.30;99.90
49236;DHT22;35067;48.134;8.378;2023-12-07T05:00:24;-3.30;99.90
49236;DHT22;35067;48.134;8.378;2023-12-07T05:01:25;-3.30;99.90
49236;DHT22;35067;48.134;8.378;2023-12-07T05:02:26;-3.30;99.90
49236;DHT22;35067;48.134;8.378;2023-12-07T05:03:28;-3.40;99.90
49236;DHT22;35067;48.134;8.378;2023-12-07T05:04:28;-3.40;99.90
49236;DHT22;35067;48.134;8.378;2023-12-07T05:05:29;-3.40;99.90
49236;DHT22;35067;48.134;8.378;2023-12-07T05:06:31;-3.40;99.90
49236;DHT22;35067;48.134;8.378;2023-12-07T05:07:32;-3.40;99.90
49236;DHT22;35067;48.134;8.378;2023-12-07T05:08:33;-3.50;99.90
49236;DHT22;35067;48.134;8.378;2023-12-07T05:09:34;-3.50;99.90
49236;DHT22;35067;48.134;8.378;2023-12-07T05:10:34;-3.40;99.90
49236;DHT22;35067;48.134;8.378;2023-12-07T05:11:35;-3.40;99.90
49236;DHT22;35067;48.134;8.378;2023-12-07T05:12:36;-3.40;99.90
49236;DHT22;35067;48.134;8.378;2023-12-07T05:13:37;-3.50;99.90
49236;DHT22;35067;48.134;8.378;2023-12-07T05:14:38;-3.50;99.90
49236;DHT22;35067;48.134;8.378;2023-12-07T05:15:38;-3.50;99.90
49236;DHT22;35067;48.134;8.378;2023-12-07T05:16:40;-3.50;99.90
49236;DHT22;35067;48.134;8.378;2023-12-07T05:17:41;-3.50;99.90
49236;DHT22;35067;48.134;8.378;2023-12-07T05:18:41;-3.60;99.90
49236;DHT22;35067;48.134;8.378;2023-12-07T05:19:44;-3.60;99.90
49236;DHT22;35067;48.134;8.378;2023-12-07T05:20:45;-3.50;99.90
49236;DHT22;35067;48.134;8.378;2023-12-07T05:21:46;-3.60;99.90
49236;DHT22;35067;48.134;8.378;2023-12-07T05:22:47;-3.60;99.90
49236;DHT22;35067;48.134;8.378;2023-12-07T05:23:48;-3.60;99.90
49236;DHT22;35067;48.134;8.378;2023-12-07T05:24:48;-3.60;99.90
49236;DHT22;35067;48.134;8.378;2023-12-07T05:25:50;-3.60;99.90
49236;DHT22;35067;48.134;8.378;2023-12-07T05:26:51;-3.60;99.90
49236;DHT22;35067;48.134;8.378;2023-12-07T05:27:52;-3.60;99.90
49236;DHT22;35067;48.134;8.378;2023-12-07T05:28:53;-3.60;99.90
49236;DHT22;35067;48.134;8.378;2023-12-07T05:29:53;-3.60;99.90
49236;DHT22;35067;48.134;8.378;2023-12-07T05:30:55;-3.70;99.90
49236;DHT22;35067;48.134;8.378;2023-12-07T05:31:57;-3.50;99.90
49236;DHT22;35067;48.134;8.378;2023-12-07T05:32:58;-3.70;99.90
49236;DHT22;35067;48.134;8.378;2023-12-07T05:33:58;-3.70;99.90
49236;DHT22;35067;48.134;8.378;2023-12-07T05:34:59;-3.70;99.90
49236;DHT22;35067;48.134;8.378;2023-12-07T05:36:00;-3.70;99.90
49236;DHT22;35067;48.134;8.378;2023-12-07T05:37:01;-3.70;99.90
49236;DHT22;35067;48.134;8.378;2023-12-07T05:38:02;-3.80;99.90
49236;DHT22;35067;48.134;8.378;2023-12-07T05:39:02;-3.80;99.90
49236;DHT22;35067;48.134;8.378;2023-12-07T05:40:03;-3.80;99.90
49236;DHT22;35067;48.134;8.378;2023-12-07T05:41:05;-3.80;99.90
49236;DHT22;35067;48.134;8.378;2023-12-07T05:42:06;-3.80;99.90
49236;DHT22;35067;48.134;8.378;2023-12-07T05:43:06;-3.80;99.90
49236;DHT22;35067;48.134;8.378;2023-12-07T05:44:08;-3.90;99.90
49236;DHT22;35067;48.134;8.378;2023-12-07T05:45:09;-3.90;99.90
49236;DHT22;35067;48.134;8.378;2023-12-07T05:46:10;-3.90;99.90
49236;DHT22;35067;48.134;8.378;2023-12-07T05:47:11;-3.90;99.90
49236;DHT22;35067;48.134;8.378;2023-12-07T05:48:12;-4.00;99.90
49236;DHT22;35067;48.134;8.378;2023-12-07T05:49:12;-4.00;99.90
49236;DHT22;35067;48.134;8.378;2023-12-07T05:50:13;-4.10;99.90
49236;DHT22;35067;48.134;8.378;2023-12-07T05:51:15;-4.10;99.90
49236;DHT22;35067;48.134;8.378;2023-12-07T05:52:16;-4.10;99.90
49236;DHT22;35067;48.134;8.378;2023-12-07T05:53:17;-4.10;99.90
49236;DHT22;35067;48.134;8.378;2023-12-07T05:54:17;-4.10;99.90
49236;DHT22;35067;48.134;8.378;2023-12-07T05:55:19;-4.20;99.90
49236;DHT22;35067;48.134;8.378;2023-12-07T05:56:20;-4.10;99.90
49236;DHT22;35067;48.134;8.378;2023-12-07T05:57:21;-4.20;99.90
49236;DHT22;35067;48.134;8.378;2023-12-07T05:58:22;-4.10;99.90
49236;DHT22;35067;48.134;8.378;2023-12-07T05:59:22;-4.10;99.90
49236;DHT22;35067;48.134;8.378;2023-12-07T06:00:23;-4.10;99.90
49236;DHT22;35067;48.134;8.378;2023-12-07T06:01:24;-4.20;99.90
49236;DHT22;35067;48.134;8.378;2023-12-07T06:02:25;-4.30;99.90
49236;DHT22;35067;48.134;8.378;2023-12-07T06:03:27;-4.20;99.90
49236;DHT22;35067;48.134;8.378;2023-12-07T06:04:27;-4.30;99.90
49236;DHT22;35067;48.134;8.378;2023-12-07T06:05:28;-4.30;99.90
49236;DHT22;35067;48.134;8.378;2023-12-07T06:06:29;-4.30;99.90
49236;DHT22;35067;48.134;8.378;2023-12-07T06:07:29;-4.40;99.90
49236;DHT22;35067;48.134;8.378;2023-12-07T06:08:30;-4.40;99.90
49236;DHT22;35067;48.134;8.378;2023-12-07T06:09:31;-4.30;99.90
49236;DHT22;35067;48.134;8.378;2023-12-07T06:10:31;-4.40;99.90
49236;DHT22;35067;48.134;8.378;2023-12-07T06:11:33;-4.30;99.90
49236;DHT22;35067;48.134;8.378;2023-12-07T06:12:35;-4.30;99.90
49236;DHT22;35067;48.134;8.378;2023-12-07T06:13:35;-4.30;99.90
49236;DHT22;35067;48.134;8.378;2023-12-07T06:14:36;-4.40;99.90
49236;DHT22;35067;48.134;8.378;2023-12-07T06:15:37;-4.40;99.90
49236;DHT22;35067;48.134;8.378;2023-12-07T06:16:37;-4.40;99.90
49236;DHT22;35067;48.134;8.378;2023-12-07T06:17:39;-4.40;99.90
49236;DHT22;35067;48.134;8.378;2023-12-07T06:18:39;-4.40;99.90
49236;DHT22;35067;48.134;8.378;2023-12-07T06:19:40;-4.40;99.90
49236;DHT22;35067;48.134;8.378;2023-12-07T06:20:42;-4.40;99.90
49236;DHT22;35067;48.134;8.378;2023-12-07T06:21:43;-4.40;99.90
49236;DHT22;35067;48.134;8.378;2023-12-07T06:22:44;-4.50;99.90
49236;DHT22;35067;48.134;8.378;2023-12-07T06:23:45;-4.50;99.90
49236;DHT22;35067;48.134;8.378;2023-12-07T06:24:47;-4.50;99.90
49236;DHT22;35067;48.134;8.378;2023-12-07T06:25:47;-4.40;99.90
49236;DHT22;35067;48.134;8.378;2023-12-07T06:26:50;-4.50;99.90
49236;DHT22;35067;48.134;8.378;2023-12-07T06:27:52;-4.40;99.90
49236;DHT22;35067;48.134;8.378;2023-12-07T06:28:53;-4.50;99.90
49236;DHT22;35067;48.134;8.378;2023-12-07T06:29:54;-4.50;99.90
49236;DHT22;35067;48.134;8.378;2023-12-07T06:30:54;-4.50;99.90